Porvoo, Suomi

23. toukokuuta 2017 klo 21:39 (EEST) (GMT +0300)
Porvoo | | Change Station

Kork 0 ft 60.38 °N, 25.65 °E | Updated 4 minutes ago

Puolipilvistä
Puolipilvistä
61.5 °F
Tuntuu kuin 61.5 °F
N
3.1
Tuuli Suunnaltaan vaihteleva Tuuli ilmansuunnasta Etelän ja kaakon välinen
Gusts 5.6 mph

Tänään
Korkea -- | Matala -- °F
--% Sateen mahd.
Eilen
Korkea -- | Matala -- °F
Precip. -- tuumaa
Ilmanpaine 29.80 tuumaa
Näkyvyys -9999.0 mailia
Pilviä
Kastepiste 43 °F
Ilmankosteus 50%
Sademäärä Ei saatavilla
Lumensyvyys Ei saatavilla
4:18 AM 10:10 PM
Vähenevä sirppi, 6% visible
METAR EFHK 231820Z 23009KT CAVOK 14/05 Q1009 NOSIG
Ilmanpaine 29.80 tuumaa
Näkyvyys -9999.0 mailia
Pilviä
Kastepiste 43 °F
Ilmankosteus 50%
Sademäärä Ei saatavilla
Lumensyvyys Ei saatavilla
4:18 AM 10:10 PM
Vähenevä sirppi, 6% visible
METAR EFHK 231820Z 23009KT CAVOK 14/05 Q1009 NOSIG

Get Severe Weather Alerts

Thanks for signing up!

Be on the lookout for a verification email in your inbox.

You'll start receiving the daily forecast at 6 AM.

×

10-Day Weather Forecast

×

Almanac

Tähtitiede

May. 23, 2017 Nousuaika Laskuaika
Valoisa aika
Porvarillinen hämärä
Nauttinen hämärä
Astronominen hämärä
Kuu
Näkyvän valon pituus
Päivän pituus
Tomorrow will be .
, % of the Moon is Illuminated

Tämän päivän ennätykset

Country Highs Country Lows

Community

WunderPhotos

Category 6

Welcome to Category 6. This is the collective home for Weather Underground's featured writeups by Dr. Jeff Masters (right), Bob Henson (left), Chris Burt, and other regular contributors.

Nearby

Ilmanlaatu

  Ilmanlaatu AQ Index Pollutant
Not available.

Lumensyvyys

Station Depth Korkeus

Maanjäristysaktiivisuus

Paikkakunta Distance Mag. Time & Date
Minimum magnitude displayed is 2.5.

Coastal Water Temperatures

Paikka Lämpötila

Stations

Lähimmät sääasemat

Aseman sijainti Lämpötila Tuulen hyytävyys Kastepiste Ilmankosteus Tuuli Precip. Kork Päivitetty Tyyppi